Time;durP1;ratioP1;P1;durP2;ratioP2;P2;SDS_P1;SDS_P2;PMS_P1;PMS_P2;Temp;Humidity;BMP_temperature;BMP_pressure;BME280_temperature;BME280_humidity;BME280_pressure;Samples;Min_cycle;Max_cycle;Signal;HPM_P1;HPM_P2
2024/03/06 00:00:53;;;;;;;2.00;1.40;;;;;;;-145.69;67.48;52392.91;5132945;27;20196;-80
2024/03/06 00:03:19;;;;;;;1.10;1.00;;;;;;;-145.69;67.05;52406.75;5133354;27;20205;-80
2024/03/06 00:05:46;;;;;;;1.00;0.90;;;;;;;-145.69;66.86;52359.22;5133777;27;20718;-81
2024/03/06 00:08:13;;;;;;;1.30;1.20;;;;;;;-145.69;67.06;52361.22;5123311;27;20255;-80
2024/03/06 00:10:41;;;;;;;2.10;1.13;;;;;;;-145.69;67.21;52377.06;5117294;28;20198;-80
2024/03/06 00:13:08;;;;;;;1.20;0.90;;;;;;;-145.69;67.33;52388.94;5116442;28;20239;-80
2024/03/06 00:15:34;;;;;;;1.37;0.90;;;;;;;-145.69;67.55;52383.00;5117045;28;20198;-80
2024/03/06 00:18:02;;;;;;;1.47;0.90;;;;;;;-145.69;67.30;52396.84;5116369;28;20270;-80
2024/03/06 00:20:28;;;;;;;2.90;1.17;;;;;;;-145.69;67.15;52384.97;5116887;28;20208;-80
2024/03/06 00:22:55;;;;;;;1.83;0.80;;;;;;;-145.69;67.63;52377.06;5116758;28;20253;-80
2024/03/06 00:25:23;;;;;;;1.97;1.10;;;;;;;-145.69;67.01;52381.00;5116530;28;20655;-80
2024/03/06 00:27:49;;;;;;;2.03;0.83;;;;;;;-145.69;67.15;52398.84;5116740;28;20193;-80
2024/03/06 00:30:16;;;;;;;1.47;1.07;;;;;;;-145.69;67.25;52379.03;5136876;27;20200;-80
2024/03/06 00:32:42;;;;;;;1.17;1.13;;;;;;;-145.69;67.75;52369.13;5137224;27;20197;-80
2024/03/06 00:35:09;;;;;;;4.10;1.30;;;;;;;-145.69;67.67;52398.84;5137066;27;20192;-80
2024/03/06 00:37:35;;;;;;;1.47;1.30;;;;;;;-145.69;68.12;52379.03;5128290;27;20225;-80
2024/03/06 00:40:02;;;;;;;2.23;1.33;;;;;;;-145.69;67.82;52379.03;5112590;28;20209;-80
2024/03/06 00:42:30;;;;;;;3.90;1.60;;;;;;;-145.69;67.84;52388.94;5115166;28;20215;-79
2024/03/06 00:44:56;;;;;;;1.53;1.37;;;;;;;-145.69;67.85;52392.91;5116323;28;20243;-79
2024/03/06 00:47:22;;;;;;;1.30;1.20;;;;;;;-145.69;67.61;52381.00;5116024;27;20198;-80
2024/03/06 00:49:49;;;;;;;1.40;1.30;;;;;;;-145.69;67.76;52373.09;5116581;28;20201;-80
2024/03/06 00:52:16;;;;;;;3.03;1.50;;;;;;;-145.69;68.24;52355.28;5116308;28;20233;-79
2024/03/06 00:54:42;;;;;;;1.53;1.30;;;;;;;-145.69;68.17;52361.22;5116327;28;20193;-79
2024/03/06 00:57:09;;;;;;;1.30;1.20;;;;;;;-145.69;68.05;52353.28;5116023;28;20213;-81
2024/03/06 00:59:36;;;;;;;2.47;1.60;;;;;;;-145.69;67.95;52371.13;5116086;28;20193;-80
2024/03/06 01:02:03;;;;;;;2.93;1.70;;;;;;;-145.69;68.18;52383.00;5115802;28;20210;-80
2024/03/06 01:04:29;;;;;;;2.70;1.60;;;;;;;-145.69;68.30;52398.84;5115753;28;20194;-80
2024/03/06 01:06:56;;;;;;;3.50;1.73;;;;;;;-145.69;68.41;52392.91;5116333;28;20561;-80
2024/03/06 01:09:27;;;;;;;2.60;1.50;;;;;;;-145.69;68.77;52369.13;5115927;28;20559;-81
2024/03/06 01:11:53;;;;;;;2.33;1.70;;;;;;;-145.69;68.49;52392.91;5115199;28;20672;-81
2024/03/06 01:14:20;;;;;;;1.40;1.20;;;;;;;-145.69;68.30;52371.13;5115157;28;20197;-81
2024/03/06 01:16:48;;;;;;;4.83;1.27;;;;;;;-145.69;68.21;52377.06;5115211;28;20735;-80
2024/03/06 01:19:14;;;;;;;2.20;1.30;;;;;;;-145.69;68.40;52408.75;5114655;28;20202;-80
2024/03/06 01:21:41;;;;;;;1.93;1.40;;;;;;;-145.69;68.27;52379.03;5115622;28;20656;-81
2024/03/06 01:24:07;;;;;;;4.10;1.40;;;;;;;-145.69;68.48;52384.97;5115570;28;20663;-80
2024/03/06 01:26:34;;;;;;;2.00;1.30;;;;;;;-145.69;68.48;52388.94;5114961;28;20190;-80
2024/03/06 01:29:00;;;;;;;2.00;1.30;;;;;;;-145.69;68.30;52420.63;5123155;27;20258;-80
2024/03/06 01:31:27;;;;;;;2.17;1.30;;;;;;;-145.69;68.31;52402.78;5136057;27;20204;-80
2024/03/06 01:33:54;;;;;;;5.27;1.30;;;;;;;-145.69;68.69;52369.13;5135962;27;20651;-81
2024/03/06 01:36:21;;;;;;;2.40;1.40;;;;;;;-145.69;68.37;52369.13;5136296;27;20211;-82
2024/03/06 01:38:47;;;;;;;1.60;1.40;;;;;;;-145.69;67.98;52396.84;5135731;27;20204;-81
2024/03/06 01:41:15;;;;;;;2.23;1.50;;;;;;;-145.69;68.32;52379.03;5135866;27;20200;-81
2024/03/06 01:43:41;;;;;;;1.60;1.20;;;;;;;-145.69;67.77;52388.94;5135969;27;20208;-81
2024/03/06 01:46:08;;;;;;;2.30;1.90;;;;;;;-145.69;68.36;52396.84;5135689;27;20205;-81
2024/03/06 01:48:35;;;;;;;1.90;1.60;;;;;;;-145.69;68.02;52369.13;5127145;27;20290;-81
2024/03/06 01:51:04;;;;;;;2.67;1.60;;;;;;;-145.69;68.32;52375.06;5115025;28;20201;-81
2024/03/06 01:53:33;;;;;;;2.50;1.60;;;;;;;-145.69;68.38;52339.44;5114988;28;20298;-81
2024/03/06 01:56:00;;;;;;;2.07;1.73;;;;;;;-145.69;68.79;52424.59;5115196;28;20209;-80
2024/03/06 01:58:27;;;;;;;3.20;1.73;;;;;;;-145.69;68.60;52365.16;5114449;28;20294;-81
2024/03/06 02:00:54;;;;;;;3.27;1.83;;;;;;;-145.69;68.62;52367.16;5115491;28;20224;-81
2024/03/06 02:03:21;;;;;;;3.97;1.33;;;;;;;-145.69;68.73;52353.28;5114805;28;20197;-81
2024/03/06 02:05:49;;;;;;;4.03;1.37;;;;;;;-145.69;68.40;52386.97;5114948;28;20205;-81
2024/03/06 02:08:17;;;;;;;1.87;1.30;;;;;;;-145.69;68.78;52388.94;5114474;27;20570;-82
2024/03/06 02:10:45;;;;;;;2.03;1.43;;;;;;;-145.69;68.49;52377.06;5114565;28;20208;-81
2024/03/06 02:13:12;;;;;;;2.10;1.30;;;;;;;-145.69;68.22;52381.00;5114734;28;20201;-81
2024/03/06 02:15:38;;;;;;;4.87;1.40;;;;;;;-145.69;68.24;52392.91;5114669;28;20197;-81
2024/03/06 02:18:06;;;;;;;1.57;1.47;;;;;;;-145.69;67.87;52381.00;5114562;28;20225;-81
2024/03/06 02:20:34;;;;;;;2.77;1.40;;;;;;;-145.69;68.21;52414.69;5114550;28;20194;-81
2024/03/06 02:23:01;;;;;;;3.17;1.10;;;;;;;-145.69;68.16;52369.13;5114519;28;20201;-79
2024/03/06 02:25:27;;;;;;;3.60;1.70;;;;;;;-145.69;68.18;52428.53;5114559;28;20197;-79
2024/03/06 02:27:54;;;;;;;1.83;1.60;;;;;;;-145.69;68.07;52416.66;5113887;28;20243;-80
2024/03/06 02:30:21;;;;;;;4.30;1.40;;;;;;;-145.69;67.92;52363.19;5114316;28;20193;-81
2024/03/06 02:32:47;;;;;;;3.87;1.47;;;;;;;-145.69;67.88;52353.28;5114641;28;20292;-81
2024/03/06 02:35:14;;;;;;;2.40;1.60;;;;;;;-145.69;68.22;52396.84;5114305;28;20431;-80
2024/03/06 02:37:44;;;;;;;2.27;1.50;;;;;;;-145.69;68.17;52365.16;5114103;28;20712;-81
2024/03/06 02:40:11;;;;;;;2.40;1.53;;;;;;;-145.69;67.63;52384.97;5113992;28;20717;-79
2024/03/06 02:42:39;;;;;;;5.30;1.40;;;;;;;-145.69;67.87;52402.78;5114255;28;20250;-80
2024/03/06 02:45:06;;;;;;;2.13;1.47;;;;;;;-145.69;67.80;52365.16;5114174;28;20541;-81
2024/03/06 02:47:33;;;;;;;2.47;1.40;;;;;;;-145.69;67.41;52384.97;5114087;28;20548;-80
2024/03/06 02:49:59;;;;;;;2.17;1.37;;;;;;;-145.69;67.39;52388.94;5114166;28;20205;-81
2024/03/06 02:52:26;;;;;;;1.83;1.37;;;;;;;-145.69;67.55;52384.97;5113863;28;20229;-81
2024/03/06 02:54:54;;;;;;;3.30;1.50;;;;;;;-145.69;67.57;52381.00;5114228;28;20197;-82
2024/03/06 02:57:20;;;;;;;2.97;1.70;;;;;;;-145.69;67.23;52388.94;5113915;28;20225;-80
2024/03/06 02:59:47;;;;;;;3.63;1.60;;;;;;;-145.69;67.18;52396.84;5130228;27;20193;-80
2024/03/06 03:02:13;;;;;;;2.20;1.60;;;;;;;-145.69;67.44;52377.06;5134535;27;20192;-80
2024/03/06 03:04:40;;;;;;;1.87;1.37;;;;;;;-145.69;67.21;52388.94;5134394;27;20232;-80
2024/03/06 03:07:06;;;;;;;1.40;1.30;;;;;;;-145.69;67.46;52367.16;5134020;27;20651;-80
2024/03/06 03:09:33;;;;;;;3.13;1.77;;;;;;;-145.69;67.77;52369.13;5134469;27;20679;-81
2024/03/06 03:12:01;;;;;;;2.43;1.50;;;;;;;-145.69;67.09;52416.66;5134591;27;20193;-80
2024/03/06 03:14:27;;;;;;;2.63;1.60;;;;;;;-145.69;67.23;52357.25;5134363;27;20200;-80
2024/03/06 03:16:54;;;;;;;2.33;1.70;;;;;;;-145.69;67.02;52365.16;5118195;27;20197;-80
2024/03/06 03:19:20;;;;;;;2.83;1.50;;;;;;;-145.69;67.41;52359.22;5113215;28;20213;-80
2024/03/06 03:21:47;;;;;;;1.80;1.40;;;;;;;-145.69;67.40;52355.28;5113680;28;20197;-80
2024/03/06 03:24:13;;;;;;;2.53;1.27;;;;;;;-145.69;67.26;52337.44;5114054;28;20297;-81
2024/03/06 03:26:41;;;;;;;2.27;1.50;;;;;;;-145.69;67.08;52384.97;5113436;28;20216;-80
2024/03/06 03:29:09;;;;;;;1.83;1.53;;;;;;;-145.69;67.34;52373.09;5124088;27;20711;-80
2024/03/06 03:31:38;;;;;;;1.87;1.50;;;;;;;-145.69;67.77;52406.75;5134330;27;20204;-80
2024/03/06 03:34:05;;;;;;;2.33;1.50;;;;;;;-145.69;67.58;52359.22;5133821;27;20197;-81
2024/03/06 03:36:31;;;;;;;5.50;1.50;;;;;;;-145.69;67.62;52357.25;5133947;27;20204;-80
2024/03/06 03:38:57;;;;;;;3.87;1.70;;;;;;;-145.69;67.71;52337.44;5134036;27;20236;-80
2024/03/06 03:41:25;;;;;;;2.73;1.67;;;;;;;-145.69;67.58;52381.00;5133198;27;20200;-80
2024/03/06 03:43:51;;;;;;;2.77;1.80;;;;;;;-145.69;67.85;52369.13;5133601;27;20203;-80
2024/03/06 03:46:19;;;;;;;2.17;1.43;;;;;;;-145.69;67.60;52384.97;5123572;27;20197;-80
2024/03/06 03:48:46;;;;;;;2.33;1.93;;;;;;;-145.69;67.60;52392.91;5113436;28;20203;-80
2024/03/06 03:51:12;;;;;;;3.00;1.80;;;;;;;-145.69;67.85;52392.91;5112745;28;20201;-80
2024/03/06 03:53:39;;;;;;;5.20;2.17;;;;;;;-145.69;67.88;52371.13;5113055;28;20237;-80
2024/03/06 03:56:06;;;;;;;2.43;1.57;;;;;;;-145.69;67.97;52361.22;5113157;28;20193;-80
2024/03/06 03:58:32;;;;;;;3.23;1.57;;;;;;;-145.69;67.72;52404.78;5116450;28;20673;-80
2024/03/06 04:00:59;;;;;;;2.10;1.77;;;;;;;-145.69;67.92;52392.91;5112704;28;20201;-80
2024/03/06 04:03:27;;;;;;;3.43;1.77;;;;;;;-145.69;67.63;52357.25;5113041;28;20205;-81
2024/03/06 04:05:54;;;;;;;1.40;1.27;;;;;;;-145.69;67.47;52349.31;5112859;28;20209;-80
2024/03/06 04:08:20;;;;;;;10.20;1.90;;;;;;;-145.69;68.08;52381.00;5113075;28;20208;-80
2024/03/06 04:10:47;;;;;;;2.70;2.00;;;;;;;-145.69;67.60;52353.28;5112387;28;20250;-80
2024/03/06 04:13:16;;;;;;;4.97;2.60;;;;;;;-145.69;67.70;52381.00;5112713;28;20287;-80
2024/03/06 04:15:42;;;;;;;2.00;1.70;;;;;;;-145.69;67.50;52357.25;5112492;28;20230;-80
2024/03/06 04:18:09;;;;;;;3.27;2.10;;;;;;;-145.69;67.68;52369.13;5112635;28;20217;-81
2024/03/06 04:20:36;;;;;;;3.53;1.90;;;;;;;-145.69;67.35;52375.06;5112579;28;20193;-81
2024/03/06 04:23:03;;;;;;;3.83;2.00;;;;;;;-145.69;67.90;52390.91;5112771;28;20205;-80
2024/03/06 04:25:29;;;;;;;4.80;2.07;;;;;;;-145.69;67.65;52396.84;5112894;28;20198;-79
2024/03/06 04:27:56;;;;;;;3.13;1.83;;;;;;;-145.69;67.48;52379.03;5112467;28;20227;-80
2024/03/06 04:30:23;;;;;;;2.50;1.67;;;;;;;-145.69;67.68;52384.97;5112815;28;20691;-80
2024/03/06 04:32:49;;;;;;;3.37;1.67;;;;;;;-145.69;67.66;52406.75;5112563;28;20296;-80
2024/03/06 04:35:16;;;;;;;3.30;1.70;;;;;;;-145.69;67.82;52357.25;5112400;28;20204;-80
2024/03/06 04:37:44;;;;;;;4.53;2.10;;;;;;;-145.69;67.42;52388.94;5112672;28;20228;-81
2024/03/06 04:40:11;;;;;;;5.20;2.23;;;;;;;-145.69;67.49;52361.22;5112652;28;20232;-80
2024/03/06 04:42:37;;;;;;;2.50;1.70;;;;;;;-145.69;67.87;52373.09;5112507;28;20201;-80
2024/03/06 04:45:04;;;;;;;3.87;2.20;;;;;;;-145.69;67.72;52383.00;5112425;28;20193;-80
2024/03/06 04:47:31;;;;;;;4.77;2.43;;;;;;;-145.69;67.55;52396.84;5112268;28;20201;-80
2024/03/06 04:49:58;;;;;;;3.17;2.17;;;;;;;-145.69;67.87;52369.13;5112418;28;20232;-80
2024/03/06 04:52:25;;;;;;;5.67;2.60;;;;;;;-145.69;67.74;52353.28;5112855;28;20263;-80
2024/03/06 04:54:53;;;;;;;4.87;2.77;;;;;;;-145.69;67.42;52388.94;5116103;28;20200;-80
2024/03/06 04:57:19;;;;;;;10.17;4.53;;;;;;;-145.69;67.92;52359.22;5116088;28;20580;-81
2024/03/06 04:59:45;;;;;;;6.53;3.60;;;;;;;-145.69;67.98;52381.00;5116717;27;20224;-80
2024/03/06 05:02:12;;;;;;;4.37;2.80;;;;;;;-145.69;67.74;52373.09;5115833;28;20208;-80
2024/03/06 05:04:38;;;;;;;6.93;3.87;;;;;;;-145.69;67.86;52400.81;5116208;28;20212;-80
2024/03/06 05:07:05;;;;;;;6.93;3.77;;;;;;;-145.69;68.05;52379.03;5115544;28;20201;-80
2024/03/06 05:09:31;;;;;;;6.17;3.30;;;;;;;-145.69;67.86;52408.75;5116006;28;20205;-80
2024/03/06 05:11:59;;;;;;;6.20;3.50;;;;;;;-145.69;67.90;52341.41;5115669;28;20672;-80
2024/03/06 05:14:26;;;;;;;4.97;3.33;;;;;;;-145.69;68.15;52383.00;5115136;28;20556;-80
2024/03/06 05:16:53;;;;;;;13.40;6.67;;;;;;;-145.69;67.88;52384.97;5116197;28;20266;-80
2024/03/06 05:19:19;;;;;;;11.43;5.77;;;;;;;-145.69;67.60;52394.88;5115865;28;20231;-80
2024/03/06 05:21:46;;;;;;;11.73;7.17;;;;;;;-145.69;67.79;52398.84;5115795;28;20197;-80
2024/03/06 05:24:12;;;;;;;24.17;12.03;;;;;;;-145.69;67.33;52386.97;5116114;28;20201;-80
2024/03/06 05:26:39;;;;;;;22.17;10.27;;;;;;;-145.69;67.60;52365.16;5115976;28;20204;-80
2024/03/06 05:29:07;;;;;;;21.83;9.60;;;;;;;-145.69;67.72;52384.97;5115688;28;20197;-79
2024/03/06 05:31:33;;;;;;;16.27;5.70;;;;;;;-145.69;67.75;52383.00;5115383;28;20640;-80
2024/03/06 05:34:00;;;;;;;8.03;4.27;;;;;;;-145.69;67.72;52388.94;5115857;28;20563;-81
2024/03/06 05:36:27;;;;;;;6.10;3.93;;;;;;;-145.69;67.93;52369.13;5115392;28;20204;-81
2024/03/06 05:38:53;;;;;;;10.43;4.17;;;;;;;-145.69;67.12;52396.84;5115419;28;20228;-81
2024/03/06 05:41:20;;;;;;;7.13;4.17;;;;;;;-145.69;67.41;52400.81;5115440;28;20648;-80
2024/03/06 05:43:46;;;;;;;7.43;4.20;;;;;;;-145.69;67.40;52377.06;5115600;28;20197;-80
2024/03/06 05:46:15;;;;;;;8.17;3.70;;;;;;;-145.69;67.39;52353.28;5115611;28;20560;-81
2024/03/06 05:48:42;;;;;;;4.57;3.30;;;;;;;-145.69;66.45;52404.78;5115481;28;20208;-80
2024/03/06 05:51:09;;;;;;;4.23;3.03;;;;;;;-145.69;66.45;52373.09;5115060;28;20201;-81
2024/03/06 05:53:38;;;;;;;5.67;3.40;;;;;;;-145.69;66.38;52400.81;5114778;28;20233;-81
2024/03/06 05:56:06;;;;;;;4.57;3.10;;;;;;;-145.69;66.48;52345.38;5115563;28;20201;-80
2024/03/06 05:58:34;;;;;;;6.60;3.30;;;;;;;-145.69;66.18;52408.75;5115010;27;20248;-81
2024/03/06 06:01:01;;;;;;;4.87;3.27;;;;;;;-145.69;66.38;52388.94;5115319;28;20327;-81
2024/03/06 06:03:28;;;;;;;4.30;2.83;;;;;;;-145.69;66.20;52367.16;5115392;28;20552;-81
2024/03/06 06:05:55;;;;;;;6.57;3.50;;;;;;;-145.69;66.51;52359.22;5114288;27;20198;-81
2024/03/06 06:08:21;;;;;;;6.27;3.47;;;;;;;-145.69;66.66;52384.97;5114832;28;20204;-80
2024/03/06 06:10:48;;;;;;;6.27;3.63;;;;;;;-145.69;66.63;52386.97;5115319;28;20659;-80
2024/03/06 06:13:15;;;;;;;4.97;3.23;;;;;;;-145.69;66.28;52369.13;5115124;28;20203;-80
2024/03/06 06:15:41;;;;;;;5.97;3.10;;;;;;;-145.69;66.11;52365.16;5115119;28;20197;-80
2024/03/06 06:18:08;;;;;;;5.43;3.60;;;;;;;-145.69;66.08;52377.06;5114071;28;20197;-81
2024/03/06 06:20:35;;;;;;;4.77;3.43;;;;;;;-145.69;66.18;52373.09;5114831;28;20607;-81
2024/03/06 06:23:02;;;;;;;8.33;3.43;;;;;;;-145.69;65.77;52383.00;5115012;28;20208;-81
2024/03/06 06:25:28;;;;;;;5.17;3.20;;;;;;;-145.69;65.86;52400.81;5114831;28;20205;-80
2024/03/06 06:27:55;;;;;;;6.27;4.00;;;;;;;-145.69;65.63;52377.06;5113901;27;20206;-80
2024/03/06 06:30:21;;;;;;;7.80;4.00;;;;;;;-145.69;65.41;52373.09;5113554;28;20190;-80
2024/03/06 06:32:48;;;;;;;6.83;3.80;;;;;;;-145.69;65.83;52365.16;5114527;28;20201;-81
2024/03/06 06:35:14;;;;;;;4.60;3.77;;;;;;;-145.69;65.63;52371.13;5114157;28;20213;-80
2024/03/06 06:37:42;;;;;;;6.37;3.73;;;;;;;-145.69;66.13;52375.06;5114669;28;20588;-81
2024/03/06 06:40:11;;;;;;;4.00;3.23;;;;;;;-145.69;65.83;52400.81;5114309;28;20225;-81
2024/03/06 06:42:38;;;;;;;7.93;4.03;;;;;;;-145.69;65.26;52365.16;5114335;28;20201;-81
2024/03/06 06:45:06;;;;;;;7.73;4.40;;;;;;;-145.69;65.43;52357.25;5114258;28;20202;-80
2024/03/06 06:47:35;;;;;;;4.97;3.73;;;;;;;-145.69;65.36;52414.69;5114681;28;20221;-80
2024/03/06 06:50:05;;;;;;;5.60;3.80;;;;;;;-145.69;65.33;52355.28;5114225;28;20194;-80
2024/03/06 06:52:33;;;;;;;7.00;3.73;;;;;;;-145.69;65.61;52365.16;5131569;27;20232;-80
2024/03/06 06:55:01;;;;;;;10.20;3.93;;;;;;;-145.69;65.09;52375.06;5134899;27;20548;-79
2024/03/06 06:57:27;;;;;;;8.37;4.30;;;;;;;-145.69;65.23;52359.22;5134584;27;20204;-80
2024/03/06 06:59:54;;;;;;;9.33;4.20;;;;;;;-145.69;65.01;52377.06;5134696;27;20220;-79
2024/03/06 07:02:20;;;;;;;7.50;4.33;;;;;;;-145.69;65.18;52377.06;5134559;27;20219;-80
2024/03/06 07:04:48;;;;;;;5.73;3.70;;;;;;;-145.69;65.26;52412.69;5134355;27;20555;-82
2024/03/06 07:07:15;;;;;;;9.87;4.40;;;;;;;-145.69;65.48;52383.00;5114748;27;20201;-81
2024/03/06 07:09:41;;;;;;;7.77;4.30;;;;;;;-145.69;65.29;52329.53;5113876;28;20205;-81
2024/03/06 07:12:09;;;;;;;7.93;4.37;;;;;;;-145.69;65.13;52394.88;5113410;28;20675;-80
2024/03/06 07:14:36;;;;;;;6.80;4.43;;;;;;;-145.69;65.24;52388.94;5113718;28;20198;-81
2024/03/06 07:17:03;;;;;;;9.83;5.43;;;;;;;-145.69;65.39;52383.00;5113360;28;20193;-81
2024/03/06 07:19:29;;;;;;;8.63;4.90;;;;;;;-145.69;65.70;52325.56;5113726;28;20229;-81
2024/03/06 07:21:56;;;;;;;10.37;5.57;;;;;;;-145.69;65.75;52388.94;5113195;28;20197;-80
2024/03/06 07:24:23;;;;;;;7.97;5.43;;;;;;;-145.69;65.52;52379.03;5116977;27;20193;-81
2024/03/06 07:26:49;;;;;;;9.37;5.70;;;;;;;-145.69;65.11;52377.06;5113345;28;20210;-80
2024/03/06 07:29:17;;;;;;;10.00;5.63;;;;;;;-145.69;65.36;52390.91;5112445;28;20208;-81
2024/03/06 07:31:43;;;;;;;11.63;5.20;;;;;;;-145.69;65.18;52381.00;5113324;28;20208;-81
2024/03/06 07:34:10;;;;;;;9.30;5.30;;;;;;;-145.69;65.23;52388.94;5113019;28;20197;-81
2024/03/06 07:36:37;;;;;;;8.73;5.20;;;;;;;-145.69;65.73;52347.34;5112987;28;20201;-81
2024/03/06 07:39:04;;;;;;;9.80;5.80;;;;;;;-145.69;65.86;52377.06;5113073;28;20723;-81
2024/03/06 07:41:31;;;;;;;9.73;5.00;;;;;;;-145.69;65.89;52359.22;5113109;28;20215;-81
2024/03/06 07:43:59;;;;;;;11.40;5.43;;;;;;;-145.69;65.48;52369.13;5113155;28;20193;-81
2024/03/06 07:46:27;;;;;;;9.67;5.03;;;;;;;-145.69;65.88;52384.97;5113467;28;20201;-81
2024/03/06 07:48:53;;;;;;;9.17;5.37;;;;;;;-145.69;65.35;52349.31;5113289;28;20647;-81
2024/03/06 07:51:20;;;;;;;7.60;4.97;;;;;;;-145.69;65.36;52392.91;5112877;28;20189;-81
2024/03/06 07:53:47;;;;;;;10.33;5.20;;;;;;;-145.69;66.18;52361.22;5112974;28;20275;-82
2024/03/06 07:56:13;;;;;;;10.40;5.10;;;;;;;-145.69;65.79;52388.94;5112938;28;20205;-81
2024/03/06 07:58:40;;;;;;;10.77;4.97;;;;;;;-145.69;65.89;52381.00;5112534;28;20216;-81
2024/03/06 08:01:07;;;;;;;7.07;3.90;;;;;;;-145.69;65.37;52400.81;5112519;28;20194;-81
2024/03/06 08:03:35;;;;;;;7.27;4.30;;;;;;;-145.69;65.53;52377.06;5112871;28;20208;-81
2024/03/06 08:06:02;;;;;;;8.57;4.30;;;;;;;-145.69;65.25;52381.00;5113142;28;20801;-82
2024/03/06 08:08:28;;;;;;;8.47;4.43;;;;;;;-145.69;64.60;52400.81;5112805;28;20206;-81
2024/03/06 08:10:54;;;;;;;7.27;4.30;;;;;;;-145.69;65.25;52408.75;5112995;28;20644;-81
2024/03/06 08:13:21;;;;;;;9.03;4.70;;;;;;;-145.69;66.11;52396.84;5112583;28;20204;-81
2024/03/06 08:15:47;;;;;;;6.40;4.17;;;;;;;-145.69;65.95;52377.06;5112971;28;20203;-81
2024/03/06 08:18:14;;;;;;;8.97;4.30;;;;;;;-145.69;66.38;52347.34;5112282;28;20209;-80
2024/03/06 08:20:42;;;;;;;7.33;5.07;;;;;;;-145.69;67.15;52377.06;5112229;28;20270;-81
2024/03/06 08:23:09;;;;;;;7.07;3.83;;;;;;;-145.69;66.53;52365.16;5112828;28;20203;-82
2024/03/06 08:25:36;;;;;;;8.47;3.97;;;;;;;-145.69;67.72;52361.22;5112716;28;20201;-80
2024/03/06 08:28:03;;;;;;;7.87;3.83;;;;;;;-145.69;68.33;52353.28;5114545;28;20219;-82
2024/03/06 08:30:30;;;;;;;5.87;4.30;;;;;;;-145.69;69.57;52357.25;5115959;28;20663;-83
2024/03/06 08:32:57;;;;;;;10.63;4.13;;;;;;;-145.69;70.23;52388.94;5116859;28;20189;-83
2024/03/06 08:35:24;;;;;;;6.83;3.87;;;;;;;-145.69;70.26;52357.25;5116679;28;20205;-81
2024/03/06 08:37:52;;;;;;;8.33;4.13;;;;;;;-145.69;70.80;52388.94;5116768;28;20205;-82
2024/03/06 08:40:28;;;;;;;9.37;4.23;;;;;;;-145.69;72.19;52357.25;5116770;28;20297;-80
2024/03/06 08:42:55;;;;;;;6.20;4.00;;;;;;;-145.69;72.93;52363.19;5117077;28;20204;-81
2024/03/06 08:45:23;;;;;;;8.73;4.57;;;;;;;-145.69;72.56;52377.06;5116432;28;20205;-81
2024/03/06 08:47:54;;;;;;;9.10;4.00;;;;;;;-145.69;73.46;52377.06;5116162;28;20212;-80
2024/03/06 08:50:21;;;;;;;9.97;4.73;;;;;;;-145.69;73.10;52381.00;5116561;27;20197;-81
2024/03/06 08:52:48;;;;;;;8.30;5.27;;;;;;;-145.69;73.10;52386.97;5116034;28;20225;-81
2024/03/06 08:55:16;;;;;;;7.33;4.70;;;;;;;-145.69;73.47;52375.06;5116438;28;20735;-80
2024/03/06 08:57:45;;;;;;;8.67;5.27;;;;;;;-145.69;72.86;52392.91;5116346;28;20200;-79
2024/03/06 09:00:12;;;;;;;9.80;5.03;;;;;;;-145.69;73.45;52353.28;5116247;28;20293;-79
2024/03/06 09:02:42;;;;;;;7.47;4.20;;;;;;;-145.69;73.23;52408.75;5116167;28;20193;-79
2024/03/06 09:05:14;;;;;;;6.97;3.83;;;;;;;-145.69;73.24;52416.66;5116112;28;20202;-80
2024/03/06 09:07:41;;;;;;;10.57;4.50;;;;;;;-145.69;73.89;52408.75;5116395;28;20201;-81
2024/03/06 09:10:14;;;;;;;7.90;4.70;;;;;;;-145.69;74.53;52345.38;5116335;27;20208;-80
2024/03/06 09:12:48;;;;;;;12.07;4.90;;;;;;;-145.69;74.57;52365.16;5115402;28;20193;-80
2024/03/06 09:15:16;;;;;;;12.23;4.80;;;;;;;-145.69;74.83;52369.13;5097095;28;20207;-81
2024/03/06 09:17:49;;;;;;;14.87;4.63;;;;;;;-145.69;75.53;52377.06;5115744;27;20223;-80
2024/03/06 09:20:24;;;;;;;7.13;4.43;;;;;;;-145.69;75.58;52396.84;5115523;28;20312;-80
2024/03/06 09:22:56;;;;;;;10.70;4.30;;;;;;;-145.69;75.20;52406.75;5115998;28;20284;-80
2024/03/06 09:25:28;;;;;;;5.97;3.83;;;;;;;-145.69;75.15;52377.06;5115193;28;20556;-79
2024/03/06 09:27:56;;;;;;;9.80;4.40;;;;;;;-145.69;75.44;52388.94;5115626;28;20280;-79
2024/03/06 09:30:23;;;;;;;9.07;4.23;;;;;;;-145.69;76.02;52388.94;5115951;28;20201;-79
2024/03/06 09:32:52;;;;;;;7.33;4.37;;;;;;;-145.69;75.91;52381.00;5115971;28;20202;-79
2024/03/06 09:35:22;;;;;;;9.30;4.60;;;;;;;-145.69;75.84;52406.75;5115696;28;20208;-79
2024/03/06 09:37:48;;;;;;;15.03;4.50;;;;;;;-145.69;76.09;52404.78;5115941;28;20217;-80
2024/03/06 09:40:23;;;;;;;10.10;4.20;;;;;;;-145.69;76.01;52414.69;5114365;28;20267;-80
2024/03/06 09:42:53;;;;;;;8.27;4.80;;;;;;;-145.69;75.58;52369.13;5113549;28;20201;-80
2024/03/06 09:45:24;;;;;;;8.70;5.00;;;;;;;-145.69;75.94;52381.00;5113479;28;20216;-80
2024/03/06 09:47:53;;;;;;;11.90;5.23;;;;;;;-145.69;76.66;52424.59;5093053;28;20206;-80
2024/03/06 09:50:26;;;;;;;10.17;5.47;;;;;;;-145.69;75.99;52392.91;5108905;27;21052;-79
2024/03/06 09:52:55;;;;;;;7.53;4.70;;;;;;;-145.69;76.29;52367.16;5133834;27;20229;-79
2024/03/06 09:55:22;;;;;;;9.53;5.23;;;;;;;-145.69;76.80;52388.94;5134155;27;20284;-79
2024/03/06 09:57:58;;;;;;;9.40;4.80;;;;;;;-145.69;76.54;52371.13;5136041;27;20197;-79
2024/03/06 10:00:32;;;;;;;9.90;4.97;;;;;;;-145.69;76.44;52392.91;5135768;27;20227;-80
2024/03/06 10:03:00;;;;;;;9.27;4.07;;;;;;;-145.69;76.30;52369.13;5135740;27;20601;-80
2024/03/06 10:05:28;;;;;;;8.83;4.70;;;;;;;-145.69;76.72;52396.84;5135265;27;20196;-80
2024/03/06 10:07:54;;;;;;;7.67;4.17;;;;;;;-145.69;76.18;52365.16;5135763;27;20205;-79
2024/03/06 10:10:24;;;;;;;9.03;4.33;;;;;;;-145.69;76.17;52388.94;5135859;27;20284;-80
2024/03/06 10:12:50;;;;;;;7.70;4.40;;;;;;;-145.69;76.81;52379.03;5135742;27;20555;-79
2024/03/06 10:15:26;;;;;;;7.43;3.33;;;;;;;-145.69;76.89;52384.97;5135505;27;20663;-79
2024/03/06 10:18:10;;;;;;;9.27;4.30;;;;;;;-145.69;76.19;52396.84;5135890;27;20558;-80
2024/03/06 10:20:37;;;;;;;9.20;3.70;;;;;;;-145.69;77.08;52365.16;5120175;27;20233;-79
2024/03/06 10:23:07;;;;;;;7.57;4.03;;;;;;;-145.69;77.51;52384.97;5114092;28;20208;-79
2024/03/06 10:25:34;;;;;;;10.33;3.70;;;;;;;-145.69;77.31;52412.69;5115016;28;20220;-79
2024/03/06 10:28:19;;;;;;;10.67;4.30;;;;;;;-145.69;77.11;52392.91;5114622;28;20201;-80
2024/03/06 10:30:46;;;;;;;7.27;3.70;;;;;;;-145.69;80.83;52400.81;5114670;28;20284;-79
2024/03/06 10:33:18;;;;;;;9.13;4.07;;;;;;;-145.69;77.86;52394.88;5114750;28;20205;-79
2024/03/06 10:35:49;;;;;;;7.37;3.67;;;;;;;-145.69;77.32;52402.78;5114795;28;20208;-80
2024/03/06 10:38:16;;;;;;;6.97;3.80;;;;;;;-145.69;77.41;52379.03;5114701;28;20205;-80
2024/03/06 10:40:44;;;;;;;8.07;4.23;;;;;;;-145.69;76.71;52353.28;5113747;28;20225;-79
2024/03/06 10:43:14;;;;;;;8.93;3.80;;;;;;;-145.69;77.64;52404.78;5113867;28;20194;-79
2024/03/06 10:45:49;;;;;;;8.00;4.10;;;;;;;-145.69;77.17;52377.06;5114315;28;20208;-79
2024/03/06 10:48:19;;;;;;;6.30;3.93;;;;;;;-145.69;77.00;52400.81;5114225;28;20659;-79
2024/03/06 10:50:47;;;;;;;7.30;3.30;;;;;;;-145.69;76.73;52361.22;5114062;28;20216;-79
2024/03/06 10:53:16;;;;;;;7.13;4.03;;;;;;;-145.69;78.06;52375.06;5113692;27;20232;-80
2024/03/06 10:55:45;;;;;;;9.30;4.50;;;;;;;-145.69;77.99;52381.00;5114229;28;20209;-79
2024/03/06 10:58:15;;;;;;;8.77;4.47;;;;;;;-145.69;77.30;52384.97;5113728;28;21058;-80
2024/03/06 11:00:44;;;;;;;10.57;4.00;;;;;;;-145.69;77.45;52373.09;5113762;28;20224;-80
2024/03/06 11:03:19;;;;;;;6.30;3.63;;;;;;;-145.69;77.48;52400.81;5113915;28;20216;-79
2024/03/06 11:05:51;;;;;;;7.73;4.17;;;;;;;-145.69;77.14;52392.91;5113571;28;20201;-81
2024/03/06 11:08:21;;;;;;;6.43;3.93;;;;;;;-145.69;76.78;52394.88;5113885;28;20250;-79
2024/03/06 11:10:48;;;;;;;8.33;3.93;;;;;;;-145.69;77.10;52400.81;5112033;28;20204;-80
2024/03/06 11:13:25;;;;;;;7.93;4.03;;;;;;;-145.69;77.03;52390.91;5113704;28;20284;-80
2024/03/06 11:15:59;;;;;;;7.77;3.83;;;;;;;-145.69;76.72;52404.78;5113224;28;20190;-80
2024/03/06 11:18:45;;;;;;;7.10;4.30;;;;;;;-145.69;76.71;52396.84;5113743;28;20201;-81